createdAt,value
2023-03-05T00:00:11.086Z,1006.12
2023-03-05T00:01:11.184Z,1006.12
2023-03-05T00:02:11.306Z,1006.13
2023-03-05T00:03:11.395Z,1006.11
2023-03-05T00:04:11.433Z,1006.14
2023-03-05T00:05:11.500Z,1006.14
2023-03-05T00:06:11.612Z,1006.17
2023-03-05T00:07:11.668Z,1006.14
2023-03-05T00:08:11.753Z,1006.19
2023-03-05T00:09:11.810Z,1006.15
2023-03-05T00:10:11.916Z,1006.16
2023-03-05T00:11:11.981Z,1006.16
2023-03-05T00:12:12.045Z,1006.15
2023-03-05T00:13:12.107Z,1006.12
2023-03-05T00:14:12.203Z,1006.12
2023-03-05T00:15:12.262Z,1006.14
2023-03-05T00:16:12.348Z,1006.16
2023-03-05T00:17:12.402Z,1006.11
2023-03-05T00:18:12.496Z,1006.16
2023-03-05T00:19:12.557Z,1006.09
2023-03-05T00:20:12.624Z,1006.09
2023-03-05T00:21:12.705Z,1006.13
2023-03-05T00:22:12.779Z,1006.06
2023-03-05T00:23:12.825Z,1006.12
2023-03-05T00:24:12.927Z,1006.10
2023-03-05T00:25:12.981Z,1006.10
2023-03-05T00:26:13.074Z,1006.07
2023-03-05T00:27:13.142Z,1006.11
2023-03-05T00:28:13.231Z,1006.09
2023-03-05T00:29:13.288Z,1006.14
2023-03-05T00:30:13.384Z,1006.13
2023-03-05T00:31:13.459Z,1006.09
2023-03-05T00:32:13.545Z,1006.11
2023-03-05T00:33:13.582Z,1006.14
2023-03-05T00:34:13.673Z,1006.13
2023-03-05T00:35:13.729Z,1006.12
2023-03-05T00:36:13.838Z,1006.09
2023-03-05T00:37:13.902Z,1006.10
2023-03-05T00:38:14.021Z,1006.09
2023-03-05T00:39:14.050Z,1006.07
2023-03-05T00:40:14.162Z,1006.05
2023-03-05T00:41:14.213Z,1006.03
2023-03-05T00:42:14.293Z,1006.02
2023-03-05T00:43:14.350Z,1006.01
2023-03-05T00:44:14.422Z,1006.03
2023-03-05T00:45:14.502Z,1005.99
2023-03-05T00:46:14.685Z,1005.99
2023-03-05T00:47:14.637Z,1005.95
2023-03-05T00:48:14.741Z,1005.92
2023-03-05T00:49:14.808Z,1005.90
2023-03-05T00:50:14.898Z,1005.91
2023-03-05T00:51:14.971Z,1005.90
2023-03-05T00:52:15.070Z,1005.88
2023-03-05T00:53:15.156Z,1005.90
2023-03-05T00:54:15.232Z,1005.85
2023-03-05T00:55:15.287Z,1005.84
2023-03-05T00:56:15.392Z,1005.84
2023-03-05T00:57:15.450Z,1005.87
2023-03-05T00:58:15.554Z,1005.84
2023-03-05T00:59:15.590Z,1005.81
2023-03-05T01:00:15.682Z,1005.84
2023-03-05T01:01:15.788Z,1005.83
2023-03-05T01:02:15.849Z,1005.86
2023-03-05T01:03:15.887Z,1005.86
2023-03-05T01:04:15.980Z,1005.83
2023-03-05T01:05:16.213Z,1005.81
2023-03-05T01:06:16.124Z,1005.82
2023-03-05T01:07:16.188Z,1005.77
2023-03-05T01:08:16.274Z,1005.75
2023-03-05T01:09:16.336Z,1005.74
2023-03-05T01:10:16.439Z,1005.71
2023-03-05T01:11:16.532Z,1005.69
2023-03-05T01:12:16.593Z,1005.69
2023-03-05T01:13:16.658Z,1005.67
2023-03-05T01:14:16.745Z,1005.65
2023-03-05T01:15:16.798Z,1005.65
2023-03-05T01:16:16.903Z,1005.68
2023-03-05T01:17:16.954Z,1005.69
2023-03-05T01:18:17.050Z,1005.65
2023-03-05T01:19:17.446Z,1005.66
2023-03-05T01:20:17.210Z,1005.67
2023-03-05T01:21:17.294Z,1005.66
2023-03-05T01:22:17.347Z,1005.67
2023-03-05T01:23:17.410Z,1005.62
2023-03-05T01:24:17.483Z,1005.64
2023-03-05T01:25:17.557Z,1005.60
2023-03-05T01:26:17.684Z,1005.58
2023-03-05T01:27:17.759Z,1005.58
2023-03-05T01:28:17.842Z,1005.55
2023-03-05T01:29:17.891Z,1005.59
2023-03-05T01:30:17.976Z,1005.54
2023-03-05T01:31:18.217Z,1005.55
2023-03-05T01:32:18.167Z,1005.53
2023-03-05T01:33:18.216Z,1005.51
2023-03-05T01:34:18.304Z,1005.53
2023-03-05T01:35:18.408Z,1005.51
2023-03-05T01:36:18.506Z,1005.52
2023-03-05T01:37:18.564Z,1005.49
2023-03-05T01:38:18.636Z,1005.50
2023-03-05T01:39:18.691Z,1005.46
2023-03-05T01:40:18.782Z,1005.46
2023-03-05T01:41:18.986Z,1005.47
2023-03-05T01:42:18.915Z,1005.43
2023-03-05T01:43:18.980Z,1005.45
2023-03-05T01:44:19.071Z,1005.43
2023-03-05T01:45:19.137Z,1005.43
2023-03-05T01:46:19.250Z,1005.41
2023-03-05T01:47:19.307Z,1005.40
2023-03-05T01:48:19.390Z,1005.38
2023-03-05T01:49:19.462Z,1005.38
2023-03-05T01:50:19.543Z,1005.40
2023-03-05T01:51:19.628Z,1005.37
2023-03-05T01:52:19.700Z,1005.35
2023-03-05T01:53:19.745Z,1005.33
2023-03-05T01:54:19.817Z,1005.30
2023-03-05T01:55:19.895Z,1005.36
2023-03-05T01:56:19.969Z,1005.30
2023-03-05T01:57:20.025Z,1005.32
2023-03-05T01:58:20.110Z,1005.27
2023-03-05T01:59:20.176Z,1005.26
2023-03-05T02:00:20.241Z,1005.30
2023-03-05T02:01:20.348Z,1005.24
2023-03-05T02:02:20.393Z,1005.27
2023-03-05T02:03:20.450Z,1005.25
2023-03-05T02:04:20.538Z,1005.22
2023-03-05T02:05:20.597Z,1005.22
2023-03-05T02:06:20.726Z,1005.19
2023-03-05T02:07:20.786Z,1005.17
2023-03-05T02:08:20.877Z,1005.18
2023-03-05T02:09:20.936Z,1005.15
2023-03-05T02:10:21.040Z,1005.12
2023-03-05T02:11:21.148Z,1005.13
2023-03-05T02:12:21.232Z,1005.08
2023-03-05T02:13:21.295Z,1005.07
2023-03-05T02:14:21.354Z,1005.08
2023-03-05T02:15:21.423Z,1005.07
2023-03-05T02:16:21.571Z,1005.07
2023-03-05T02:17:21.560Z,1005.02
2023-03-05T02:18:21.654Z,1005.07
2023-03-05T02:19:21.712Z,1005.06
2023-03-05T02:20:21.778Z,1005.03
2023-03-05T02:21:21.888Z,1005.03
2023-03-05T02:22:21.956Z,1005.00
2023-03-05T02:23:22.052Z,1005.00
2023-03-05T02:24:22.117Z,1004.98
2023-03-05T02:25:22.188Z,1004.93
2023-03-05T02:26:22.270Z,1004.97
2023-03-05T02:27:22.320Z,1004.90
2023-03-05T02:28:22.382Z,1004.95
2023-03-05T02:29:22.483Z,1004.94
2023-03-05T02:30:22.545Z,1004.93
2023-03-05T02:31:22.679Z,1004.89
2023-03-05T02:32:22.745Z,1004.93
2023-03-05T02:33:22.797Z,1004.93
2023-03-05T02:34:22.850Z,1004.89
2023-03-05T02:35:23.119Z,1004.89
2023-03-05T02:36:23.071Z,1004.87
2023-03-05T02:37:23.118Z,1004.88
2023-03-05T02:38:23.185Z,1004.86
2023-03-05T02:39:23.276Z,1004.84
2023-03-05T02:40:23.346Z,1004.80
2023-03-05T02:41:23.442Z,1004.84
2023-03-05T02:42:23.489Z,1004.79
2023-03-05T02:43:23.580Z,1004.77
2023-03-05T02:44:23.655Z,1004.77
2023-03-05T02:45:23.745Z,1004.72
2023-03-05T02:46:23.803Z,1004.76
2023-03-05T02:47:23.871Z,1004.71
2023-03-05T02:48:23.940Z,1004.73
2023-03-05T02:49:24.046Z,1004.69
2023-03-05T02:50:24.107Z,1004.74
2023-03-05T02:51:24.189Z,1004.70
2023-03-05T02:52:24.251Z,1004.73
2023-03-05T02:53:24.351Z,1004.73
2023-03-05T02:54:24.418Z,1004.73
2023-03-05T02:55:24.534Z,1004.68
2023-03-05T02:56:24.597Z,1004.68
2023-03-05T02:57:24.675Z,1004.68
2023-03-05T02:58:24.738Z,1004.67
2023-03-05T02:59:24.812Z,1004.65
2023-03-05T03:00:24.882Z,1004.64
2023-03-05T03:01:25.062Z,1004.65
2023-03-05T03:02:25.051Z,1004.62
2023-03-05T03:03:25.233Z,1004.61
2023-03-05T03:04:25.203Z,1004.59
2023-03-05T03:05:25.291Z,1004.60
2023-03-05T03:06:25.375Z,1004.61
2023-03-05T03:07:25.455Z,1004.62
2023-03-05T03:08:25.512Z,1004.61
2023-03-05T03:09:25.625Z,1004.59
2023-03-05T03:10:25.695Z,1004.57
2023-03-05T03:11:25.808Z,1004.58
2023-03-05T03:12:25.868Z,1004.57
2023-03-05T03:13:25.940Z,1004.55
2023-03-05T03:14:26.050Z,1004.55
2023-03-05T03:15:26.076Z,1004.56
2023-03-05T03:16:26.227Z,1004.55
2023-03-05T03:17:26.229Z,1004.53
2023-03-05T03:18:26.306Z,1004.50
2023-03-05T03:19:26.386Z,1004.48
2023-03-05T03:20:26.452Z,1004.47
2023-03-05T03:21:26.577Z,1004.46
2023-03-05T03:22:26.625Z,1004.46
2023-03-05T03:23:26.712Z,1004.41
2023-03-05T03:24:26.784Z,1004.41
2023-03-05T03:25:26.862Z,1004.44
2023-03-05T03:26:26.940Z,1004.43
2023-03-05T03:27:27.036Z,1004.49
2023-03-05T03:28:27.089Z,1004.47
2023-03-05T03:29:27.154Z,1004.47
2023-03-05T03:30:27.223Z,1004.46
2023-03-05T03:31:27.299Z,1004.45
2023-03-05T03:32:27.450Z,1004.46
2023-03-05T03:33:27.473Z,1004.49
2023-03-05T03:34:27.546Z,1004.49
2023-03-05T03:35:27.660Z,1004.46
2023-03-05T03:36:27.752Z,1004.46
2023-03-05T03:37:27.809Z,1004.46
2023-03-05T03:38:27.874Z,1004.43
2023-03-05T03:39:27.967Z,1004.44
2023-03-05T03:40:28.018Z,1004.43
2023-03-05T03:41:28.132Z,1004.42
2023-03-05T03:42:28.205Z,1004.41
2023-03-05T03:43:28.285Z,1004.41
2023-03-05T03:44:28.347Z,1004.41
2023-03-05T03:45:28.423Z,1004.39
2023-03-05T03:46:28.561Z,1004.35
2023-03-05T03:47:28.602Z,1004.38
2023-03-05T03:48:28.666Z,1004.35
2023-03-05T03:49:28.774Z,1004.34
2023-03-05T03:50:28.830Z,1004.36
2023-03-05T03:51:28.950Z,1004.34
2023-03-05T03:52:28.995Z,1004.32
2023-03-05T03:53:29.086Z,1004.29
2023-03-05T03:54:29.151Z,1004.29
2023-03-05T03:55:29.251Z,1004.26
2023-03-05T03:56:29.340Z,1004.24
2023-03-05T03:57:29.387Z,1004.23
2023-03-05T03:58:29.461Z,1004.23
2023-03-05T03:59:29.545Z,1004.19
2023-03-05T04:00:29.629Z,1004.17
2023-03-05T04:01:29.740Z,1004.18
2023-03-05T04:02:29.840Z,1004.22
2023-03-05T04:03:29.903Z,1004.15
2023-03-05T04:04:29.976Z,1004.16
2023-03-05T04:05:30.070Z,1004.20
2023-03-05T04:06:30.167Z,1004.17
2023-03-05T04:07:30.219Z,1004.12
2023-03-05T04:08:30.280Z,1004.11
2023-03-05T04:09:30.357Z,1004.13
2023-03-05T04:10:30.445Z,1004.07
2023-03-05T04:11:30.525Z,1004.07
2023-03-05T04:12:30.550Z,1004.07
2023-03-05T04:13:30.640Z,1004.11
2023-03-05T04:14:30.712Z,1004.10
2023-03-05T04:15:30.789Z,1004.08
2023-03-05T04:16:30.907Z,1004.08
2023-03-05T04:17:30.970Z,1004.03
2023-03-05T04:18:32.524Z,1004.04
2023-03-05T04:19:31.107Z,1004.03
2023-03-05T04:20:31.181Z,1004.01
2023-03-05T04:21:31.305Z,1004.01
2023-03-05T04:22:31.324Z,1004.01
2023-03-05T04:23:31.427Z,1004.02
2023-03-05T04:24:31.489Z,1003.97
2023-03-05T04:25:31.586Z,1003.99
2023-03-05T04:26:31.674Z,1003.99
2023-03-05T04:27:31.752Z,1003.95
2023-03-05T04:28:31.821Z,1003.96
2023-03-05T04:29:31.902Z,1003.95
2023-03-05T04:30:31.969Z,1003.90
2023-03-05T04:31:32.119Z,1003.89
2023-03-05T04:32:32.155Z,1003.90
2023-03-05T04:33:32.203Z,1003.91
2023-03-05T04:34:32.284Z,1003.86
2023-03-05T04:35:32.377Z,1003.81
2023-03-05T04:36:32.452Z,1003.80
2023-03-05T04:37:32.522Z,1003.83
2023-03-05T04:38:32.582Z,1003.83
2023-03-05T04:39:32.692Z,1003.82
2023-03-05T04:40:32.741Z,1003.80
2023-03-05T04:41:32.855Z,1003.81
2023-03-05T04:42:32.916Z,1003.80
2023-03-05T04:43:32.992Z,1003.81
2023-03-05T04:44:33.049Z,1003.81
2023-03-05T04:45:33.123Z,1003.81
2023-03-05T04:46:33.239Z,1003.82
2023-03-05T04:47:33.282Z,1003.79
2023-03-05T04:48:33.347Z,1003.78
2023-03-05T04:49:33.439Z,1003.78
2023-03-05T04:50:33.502Z,1003.76
2023-03-05T04:51:33.648Z,1003.79
2023-03-05T04:52:33.671Z,1003.78
2023-03-05T04:53:33.749Z,1003.77
2023-03-05T04:54:33.797Z,1003.79
2023-03-05T04:55:33.862Z,1003.77
2023-03-05T04:56:33.931Z,1003.78
2023-03-05T04:57:34.012Z,1003.75
2023-03-05T04:58:34.071Z,1003.72
2023-03-05T04:59:34.164Z,1003.72
2023-03-05T05:00:34.239Z,1003.70
2023-03-05T05:01:34.348Z,1003.69
2023-03-05T05:02:34.460Z,1003.67
2023-03-05T05:03:34.462Z,1003.64
2023-03-05T05:04:34.514Z,1003.65
2023-03-05T05:05:34.606Z,1003.63
2023-03-05T05:06:34.706Z,1003.61
2023-03-05T05:07:34.773Z,1003.58
2023-03-05T05:08:34.838Z,1003.57
2023-03-05T05:09:34.939Z,1003.55
2023-03-05T05:10:35.012Z,1003.57
2023-03-05T05:11:35.123Z,1003.57
2023-03-05T05:12:35.197Z,1003.55
2023-03-05T05:13:35.276Z,1003.52
2023-03-05T05:14:35.333Z,1003.57
2023-03-05T05:15:35.428Z,1003.50
2023-03-05T05:16:35.546Z,1003.51
2023-03-05T05:17:35.600Z,1003.54
2023-03-05T05:18:35.663Z,1003.49
2023-03-05T05:19:35.813Z,1003.52
2023-03-05T05:20:35.825Z,1003.48
2023-03-05T05:21:35.938Z,1003.48
2023-03-05T05:22:36.004Z,1003.44
2023-03-05T05:23:36.092Z,1003.43
2023-03-05T05:24:36.157Z,1003.43
2023-03-05T05:25:36.265Z,1003.39
2023-03-05T05:26:36.337Z,1003.41
2023-03-05T05:27:36.408Z,1003.41
2023-03-05T05:28:36.464Z,1003.40
2023-03-05T05:29:36.550Z,1003.42
2023-03-05T05:30:36.632Z,1003.40
2023-03-05T05:31:36.777Z,1003.44
2023-03-05T05:32:36.916Z,1003.43
2023-03-05T05:33:36.865Z,1003.43
2023-03-05T05:34:36.935Z,1003.45
2023-03-05T05:35:37.100Z,1003.41
2023-03-05T05:36:37.150Z,1003.42
2023-03-05T05:37:37.232Z,1003.45
2023-03-05T05:38:37.298Z,1003.45
2023-03-05T05:39:37.392Z,1003.44
2023-03-05T05:40:37.462Z,1003.42
2023-03-05T05:41:37.581Z,1003.45
2023-03-05T05:42:37.653Z,1003.45
2023-03-05T05:43:37.734Z,1003.47
2023-03-05T05:44:37.817Z,1003.44
2023-03-05T05:45:38.190Z,1003.44
2023-03-05T05:46:38.135Z,1003.42
2023-03-05T05:47:38.045Z,1003.43
2023-03-05T05:48:38.125Z,1003.37
2023-03-05T05:49:38.208Z,1003.42
2023-03-05T05:50:38.295Z,1003.39
2023-03-05T05:51:38.418Z,1003.40
2023-03-05T05:52:38.447Z,1003.37
2023-03-05T05:53:38.545Z,1003.38
2023-03-05T05:54:38.621Z,1003.40
2023-03-05T05:55:38.693Z,1003.40
2023-03-05T05:56:38.775Z,1003.41
2023-03-05T05:57:38.838Z,1003.46
2023-03-05T05:58:38.908Z,1003.43
2023-03-05T05:59:38.991Z,1003.41
2023-03-05T06:00:39.066Z,1003.38
2023-03-05T06:01:39.206Z,1003.39
2023-03-05T06:02:39.257Z,1003.38
2023-03-05T06:03:39.289Z,1003.41
2023-03-05T06:04:39.357Z,1003.39
2023-03-05T06:05:39.452Z,1003.39
2023-03-05T06:06:39.533Z,1003.36
2023-03-05T06:07:39.600Z,1003.38
2023-03-05T06:08:39.668Z,1003.37
2023-03-05T06:09:39.766Z,1003.36
2023-03-05T06:10:39.838Z,1003.34
2023-03-05T06:11:39.962Z,1003.37
2023-03-05T06:12:40.037Z,1003.32
2023-03-05T06:13:40.126Z,1003.34
2023-03-05T06:14:40.229Z,1003.37
2023-03-05T06:15:40.314Z,1003.37
2023-03-05T06:16:40.468Z,1003.34
2023-03-05T06:17:40.453Z,1003.37
2023-03-05T06:18:40.538Z,1003.40
2023-03-05T06:19:40.616Z,1003.39
2023-03-05T06:20:40.682Z,1003.41
2023-03-05T06:21:40.798Z,1003.42
2023-03-05T06:22:40.864Z,1003.42
2023-03-05T06:23:40.949Z,1003.42
2023-03-05T06:24:41.007Z,1003.43
2023-03-05T06:25:41.086Z,1003.42
2023-03-05T06:26:41.169Z,1003.44
2023-03-05T06:27:41.247Z,1003.43
2023-03-05T06:28:41.308Z,1003.44
2023-03-05T06:29:41.402Z,1003.43
2023-03-05T06:30:41.494Z,1003.45
2023-03-05T06:31:41.694Z,1003.46
2023-03-05T06:32:41.616Z,1003.48
2023-03-05T06:33:41.713Z,1003.43
2023-03-05T06:34:41.785Z,1003.49
2023-03-05T06:35:41.929Z,1003.45
2023-03-05T06:36:42.253Z,1003.45
2023-03-05T06:37:42.044Z,1003.45
2023-03-05T06:38:42.250Z,1003.40
2023-03-05T06:39:42.192Z,1003.43
2023-03-05T06:40:42.284Z,1003.44
2023-03-05T06:41:42.356Z,1003.42
2023-03-05T06:42:42.416Z,1003.44
2023-03-05T06:43:42.482Z,1003.43
2023-03-05T06:44:42.569Z,1003.43
2023-03-05T06:45:42.653Z,1003.43
2023-03-05T06:46:42.745Z,1003.46
2023-03-05T06:47:42.811Z,1003.45
2023-03-05T06:48:42.891Z,1003.42
2023-03-05T06:49:42.954Z,1003.39
2023-03-05T06:50:43.019Z,1003.40
2023-03-05T06:51:43.113Z,1003.39
2023-03-05T06:52:43.164Z,1003.40
2023-03-05T06:53:43.237Z,1003.40
2023-03-05T06:54:43.334Z,1003.39
2023-03-05T06:55:43.405Z,1003.43
2023-03-05T06:56:43.474Z,1003.41
2023-03-05T06:57:43.573Z,1003.40
2023-03-05T06:58:43.666Z,1003.41
2023-03-05T06:59:43.736Z,1003.40
2023-03-05T07:00:43.824Z,1003.43
2023-03-05T07:01:43.937Z,1003.40
2023-03-05T07:02:44.022Z,1003.37
2023-03-05T07:03:44.102Z,1003.40
2023-03-05T07:04:44.137Z,1003.34
2023-03-05T07:05:44.189Z,1003.36
2023-03-05T07:06:44.303Z,1003.32
2023-03-05T07:07:44.359Z,1003.35
2023-03-05T07:08:44.457Z,1003.32
2023-03-05T07:09:44.552Z,1003.30
2023-03-05T07:10:44.605Z,1003.27
2023-03-05T07:11:44.680Z,1003.27
2023-03-05T07:12:44.735Z,1003.26
2023-03-05T07:13:44.793Z,1003.23
2023-03-05T07:14:44.889Z,1003.19
2023-03-05T07:15:45.004Z,1003.19
2023-03-05T07:16:45.117Z,1003.16
2023-03-05T07:17:45.147Z,1003.15
2023-03-05T07:18:45.263Z,1003.15
2023-03-05T07:19:45.307Z,1003.15
2023-03-05T07:20:45.382Z,1003.19
2023-03-05T07:21:45.460Z,1003.23
2023-03-05T07:22:45.612Z,1003.22
2023-03-05T07:23:45.650Z,1003.23
2023-03-05T07:24:45.688Z,1003.25
2023-03-05T07:25:45.743Z,1003.26
2023-03-05T07:26:47.936Z,1003.23
2023-03-05T07:27:45.908Z,1003.21
2023-03-05T07:28:46.003Z,1003.14
2023-03-05T07:29:46.077Z,1003.17
2023-03-05T07:30:46.219Z,1003.14
2023-03-05T07:31:46.243Z,1003.12
2023-03-05T07:32:46.323Z,1003.14
2023-03-05T07:33:46.405Z,1003.14
2023-03-05T07:34:46.487Z,1003.12
2023-03-05T07:35:46.562Z,1003.15
2023-03-05T07:36:46.646Z,1003.10
2023-03-05T07:37:46.696Z,1003.12
2023-03-05T07:38:46.787Z,1003.09
2023-03-05T07:39:47.397Z,1003.12
2023-03-05T07:40:46.962Z,1003.11
2023-03-05T07:41:47.038Z,1003.12
2023-03-05T07:42:47.108Z,1003.11
2023-03-05T07:43:47.160Z,1003.13
2023-03-05T07:44:47.243Z,1003.08
2023-03-05T07:45:47.340Z,1003.12
2023-03-05T07:46:47.434Z,1003.09
2023-03-05T07:47:47.452Z,1003.14
2023-03-05T07:48:47.530Z,1003.09
2023-03-05T07:49:47.583Z,1003.05
2023-03-05T07:50:47.691Z,1003.08
2023-03-05T07:51:47.771Z,1003.08
2023-03-05T07:52:47.866Z,1003.06
2023-03-05T07:53:47.915Z,1003.08
2023-03-05T07:54:48.004Z,1003.03
2023-03-05T07:55:48.062Z,1003.04
2023-03-05T07:56:48.221Z,1003.07
2023-03-05T07:57:48.236Z,1003.07
2023-03-05T07:58:48.455Z,1003.02
2023-03-05T07:59:48.435Z,1003.00
2023-03-05T08:00:48.509Z,1003.02
2023-03-05T08:01:48.616Z,1002.91
2023-03-05T08:02:48.715Z,1002.94
2023-03-05T08:03:48.773Z,1002.91
2023-03-05T08:04:48.838Z,1002.83
2023-03-05T08:05:48.909Z,1002.84
2023-03-05T08:06:49.010Z,1002.81
2023-03-05T08:07:49.066Z,1002.79
2023-03-05T08:08:49.153Z,1002.83
2023-03-05T08:09:49.204Z,1002.81
2023-03-05T08:10:49.289Z,1002.88
2023-03-05T08:11:49.366Z,1002.86
2023-03-05T08:12:49.446Z,1002.84
2023-03-05T08:13:49.534Z,1002.83
2023-03-05T08:14:49.632Z,1002.82
2023-03-05T08:15:49.733Z,1002.86
2023-03-05T08:16:49.791Z,1002.86
2023-03-05T08:17:49.842Z,1002.83
2023-03-05T08:18:49.945Z,1002.84
2023-03-05T08:19:50.032Z,1002.84
2023-03-05T08:20:50.131Z,1002.80
2023-03-05T08:21:50.202Z,1002.82
2023-03-05T08:22:50.251Z,1002.78
2023-03-05T08:23:50.337Z,1002.78
2023-03-05T08:24:50.433Z,1002.77
2023-03-05T08:25:50.501Z,1002.74
2023-03-05T08:26:50.621Z,1002.69
2023-03-05T08:27:50.661Z,1002.70
2023-03-05T08:28:50.756Z,1002.72
2023-03-05T08:29:50.844Z,1002.72
2023-03-05T08:30:50.938Z,1002.71
2023-03-05T08:31:51.026Z,1002.69
2023-03-05T08:32:51.103Z,1002.67
2023-03-05T08:33:51.217Z,1002.65
2023-03-05T08:34:51.279Z,1002.62
2023-03-05T08:35:51.457Z,1002.64
2023-03-05T08:36:51.463Z,1002.65
2023-03-05T08:37:51.516Z,1002.62
2023-03-05T08:38:51.576Z,1002.64
2023-03-05T08:39:51.684Z,1002.59
2023-03-05T08:40:51.771Z,1002.56
2023-03-05T08:41:51.880Z,1002.60
2023-03-05T08:42:51.926Z,1002.59
2023-03-05T08:43:52.017Z,1002.58
2023-03-05T08:44:52.096Z,1002.57
2023-03-05T08:45:52.170Z,1002.56
2023-03-05T08:46:52.351Z,1002.59
2023-03-05T08:47:52.354Z,1002.58
2023-03-05T08:48:52.447Z,1002.62
2023-03-05T08:49:52.542Z,1002.58
2023-03-05T08:50:52.629Z,1002.57
2023-03-05T08:51:52.716Z,1002.55
2023-03-05T08:52:52.799Z,1002.55
2023-03-05T08:53:52.868Z,1002.55
2023-03-05T08:54:52.945Z,1002.54
2023-03-05T08:55:53.019Z,1002.56
2023-03-05T08:56:53.131Z,1002.54
2023-03-05T08:57:53.176Z,1002.56
2023-03-05T08:58:53.263Z,1002.57
2023-03-05T08:59:53.357Z,1002.56
2023-03-05T09:00:53.434Z,1002.56
2023-03-05T09:01:53.674Z,1002.56
2023-03-05T09:02:53.626Z,1002.54
2023-03-05T09:03:53.695Z,1002.55
2023-03-05T09:04:53.782Z,1002.53
2023-03-05T09:05:53.848Z,1002.53
2023-03-05T09:06:53.946Z,1002.49
2023-03-05T09:07:54.012Z,1002.52
2023-03-05T09:08:54.096Z,1002.54
2023-03-05T09:09:54.195Z,1002.51
2023-03-05T09:10:54.248Z,1002.48
2023-03-05T09:11:54.362Z,1002.52
2023-03-05T09:12:54.435Z,1002.46
2023-03-05T09:13:54.543Z,1002.44
2023-03-05T09:14:54.634Z,1002.43
2023-03-05T09:15:54.783Z,1002.45
2023-03-05T09:16:54.805Z,1002.42
2023-03-05T09:17:54.898Z,1002.39
2023-03-05T09:18:54.977Z,1002.39
2023-03-05T09:19:55.079Z,1002.35
2023-03-05T09:20:55.161Z,1002.34
2023-03-05T09:21:56.983Z,1002.34
2023-03-05T09:22:55.306Z,1002.34
2023-03-05T09:23:55.406Z,1002.29
2023-03-05T09:24:55.482Z,1002.31
2023-03-05T09:25:55.570Z,1002.31
2023-03-05T09:26:55.663Z,1002.34
2023-03-05T09:27:55.745Z,1002.28
2023-03-05T09:28:55.833Z,1002.23
2023-03-05T09:29:55.919Z,1002.26
2023-03-05T09:30:55.994Z,1002.22
2023-03-05T09:31:56.134Z,1002.22
2023-03-05T09:32:56.145Z,1002.20
2023-03-05T09:33:56.254Z,1002.22
2023-03-05T09:34:56.317Z,1002.22
2023-03-05T09:35:56.466Z,1002.21
2023-03-05T09:36:56.493Z,1002.20
2023-03-05T09:37:56.566Z,1002.15
2023-03-05T09:38:56.658Z,1002.18
2023-03-05T09:39:56.742Z,1002.15
2023-03-05T09:40:56.826Z,1002.15
2023-03-05T09:41:56.956Z,1002.14
2023-03-05T09:42:57.019Z,1002.14
2023-03-05T09:43:57.107Z,1002.13
2023-03-05T09:44:57.175Z,1002.10
2023-03-05T09:45:57.300Z,1002.10
2023-03-05T09:46:57.364Z,1002.13
2023-03-05T09:47:57.430Z,1002.11
2023-03-05T09:48:57.500Z,1002.10
2023-03-05T09:49:57.606Z,1002.13
2023-03-05T09:50:57.677Z,1002.13
2023-03-05T09:51:57.798Z,1002.11
2023-03-05T09:52:57.855Z,1002.12
2023-03-05T09:53:57.936Z,1002.10
2023-03-05T09:54:57.998Z,1002.06
2023-03-05T09:55:58.094Z,1002.05
2023-03-05T09:56:58.190Z,1002.08
2023-03-05T09:57:58.245Z,1002.03
2023-03-05T09:58:58.313Z,1002.00
2023-03-05T09:59:58.417Z,1001.98
2023-03-05T10:00:58.505Z,1002.01
2023-03-05T10:01:58.638Z,1001.98
2023-03-05T10:02:58.759Z,1001.90
2023-03-05T10:03:58.833Z,1001.88
2023-03-05T10:04:58.851Z,1001.90
2023-03-05T10:05:58.940Z,1001.85
2023-03-05T10:06:59.040Z,1001.90
2023-03-05T10:07:59.116Z,1001.87
2023-03-05T10:08:59.174Z,1001.86
2023-03-05T10:09:59.273Z,1001.88
2023-03-05T10:10:59.331Z,1001.88
2023-03-05T10:11:59.433Z,1001.84
2023-03-05T10:12:59.497Z,1001.83
2023-03-05T10:13:59.593Z,1001.79
2023-03-05T10:14:59.681Z,1001.82
2023-03-05T10:15:59.758Z,1001.83
2023-03-05T10:16:59.840Z,1001.82
2023-03-05T10:17:59.896Z,1001.83
2023-03-05T10:18:59.957Z,1001.83
2023-03-05T10:20:00.044Z,1001.81
2023-03-05T10:21:00.149Z,1001.79
2023-03-05T10:22:00.219Z,1001.84
2023-03-05T10:23:00.292Z,1001.78
2023-03-05T10:24:00.382Z,1001.75
2023-03-05T10:25:00.445Z,1001.79
2023-03-05T10:26:00.541Z,1001.78
2023-03-05T10:27:00.669Z,1001.78
2023-03-05T10:28:00.712Z,1001.73
2023-03-05T10:29:00.759Z,1001.74
2023-03-05T10:30:00.848Z,1001.68
2023-03-05T10:31:00.918Z,1001.66
2023-03-05T10:32:01.120Z,1001.60
2023-03-05T10:33:01.056Z,1001.63
2023-03-05T10:34:01.155Z,1001.66
2023-03-05T10:35:01.233Z,1001.62
2023-03-05T10:36:01.311Z,1001.61
2023-03-05T10:37:01.408Z,1001.63
2023-03-05T10:38:01.450Z,1001.61
2023-03-05T10:39:01.540Z,1001.64
2023-03-05T10:40:01.684Z,1001.59
2023-03-05T10:41:01.685Z,1001.60
2023-03-05T10:42:01.799Z,1001.60
2023-03-05T10:43:01.852Z,1001.60
2023-03-05T10:44:01.955Z,1001.57
2023-03-05T10:45:02.006Z,1001.53
2023-03-05T10:46:02.157Z,1001.55
2023-03-05T10:47:02.194Z,1001.57
2023-03-05T10:48:02.251Z,1001.55
2023-03-05T10:49:02.330Z,1001.58
2023-03-05T10:50:02.430Z,1001.56
2023-03-05T10:51:02.508Z,1001.54
2023-03-05T10:52:02.612Z,1001.55
2023-03-05T10:53:02.698Z,1001.57
2023-03-05T10:54:02.767Z,1001.53
2023-03-05T10:55:02.856Z,1001.48
2023-03-05T10:56:02.943Z,1001.46
2023-03-05T10:57:03.029Z,1001.53
2023-03-05T10:58:03.091Z,1001.54
2023-03-05T10:59:03.178Z,1001.49
2023-03-05T11:00:03.242Z,1001.49
2023-03-05T11:01:03.343Z,1001.49
2023-03-05T11:02:03.478Z,1001.47
2023-03-05T11:03:03.462Z,1001.42
2023-03-05T11:04:03.566Z,1001.40
2023-03-05T11:05:05.254Z,1001.43
2023-03-05T11:06:03.703Z,1001.41
2023-03-05T11:07:03.803Z,1001.43
2023-03-05T11:08:03.865Z,1001.43
2023-03-05T11:09:03.964Z,1001.41
2023-03-05T11:10:04.040Z,1001.40
2023-03-05T11:11:04.241Z,1001.41
2023-03-05T11:12:04.208Z,1001.43
2023-03-05T11:13:04.295Z,1001.36
2023-03-05T11:14:04.370Z,1001.34
2023-03-05T11:15:04.460Z,1001.36
2023-03-05T11:16:04.573Z,1001.33
2023-03-05T11:17:04.606Z,1001.33
2023-03-05T11:18:04.669Z,1001.32
2023-03-05T11:19:04.776Z,1001.33
2023-03-05T11:20:04.846Z,1001.34
2023-03-05T11:21:04.921Z,1001.32
2023-03-05T11:22:04.999Z,1001.30
2023-03-05T11:23:05.092Z,1001.26
2023-03-05T11:24:05.155Z,1001.27
2023-03-05T11:25:05.261Z,1001.25
2023-03-05T11:26:05.322Z,1001.23
2023-03-05T11:27:05.432Z,1001.23
2023-03-05T11:28:05.501Z,1001.22
2023-03-05T11:29:05.584Z,1001.23
2023-03-05T11:30:05.643Z,1001.20
2023-03-05T11:31:05.768Z,1001.22
2023-03-05T11:32:05.893Z,1001.19
2023-03-05T11:33:05.927Z,1001.25
2023-03-05T11:34:06.004Z,1001.21
2023-03-05T11:35:06.100Z,1001.17
2023-03-05T11:36:06.167Z,1001.19
2023-03-05T11:37:06.368Z,1001.15
2023-03-05T11:38:06.352Z,1001.17
2023-03-05T11:39:06.456Z,1001.15
2023-03-05T11:40:06.522Z,1001.20
2023-03-05T11:41:06.602Z,1001.15
2023-03-05T11:42:06.811Z,1001.17
2023-03-05T11:43:06.768Z,1001.18
2023-03-05T11:44:06.857Z,1001.16
2023-03-05T11:45:06.960Z,1001.17
2023-03-05T11:46:07.090Z,1001.17
2023-03-05T11:47:07.147Z,1001.14
2023-03-05T11:48:07.218Z,1001.15
2023-03-05T11:49:07.303Z,1001.14
2023-03-05T11:50:07.368Z,1001.12
2023-03-05T11:51:07.480Z,1001.06
2023-03-05T11:52:07.569Z,1001.13
2023-03-05T11:53:07.638Z,1001.09
2023-03-05T11:54:07.697Z,1001.09
2023-03-05T11:55:07.788Z,1001.02
2023-03-05T11:56:07.839Z,1001.01
2023-03-05T11:57:07.933Z,1000.97
2023-03-05T11:58:08.013Z,1000.95
2023-03-05T11:59:08.081Z,1000.96
2023-03-05T12:00:08.169Z,1000.92
2023-03-05T12:01:08.258Z,1000.89
2023-03-05T12:02:08.335Z,1000.91
2023-03-05T12:03:08.663Z,1000.90
2023-03-05T12:04:08.657Z,1000.89
2023-03-05T12:05:08.595Z,1000.88
2023-03-05T12:06:08.649Z,1000.85